This is the latest recevied weather packets stored in our database for station/object KC1TEM-13. If no packets are shown the sender has not sent any weather packets the latest 10 day(s).
| Time | Temp. | Humidity | Pressure | Rain* | Wind** | Luminosity | Snow |
|---|---|---|---|---|---|---|---|
| 1787841284 | 24.44° C | 75% | 1019 hPa | 0 mm | - | 744 W/m² | - |
| 1787840979 | 24.44° C | 75% | 1018.9 hPa | 0 mm | - | 208 W/m² | - |
| 1787840675 | 24.44° C | 77% | 1018.9 hPa | 0 mm | - | 252 W/m² | - |
| 1787840370 | 23.89° C | 78% | 1018.7 hPa | 0 mm | - | 406 W/m² | - |
| 1787840065 | 23.89° C | 79% | 1018.8 hPa | 0 mm | - | 508 W/m² | - |
| 1787839760 | 23.89° C | 78% | 1018.8 hPa | 0 mm | - | 350 W/m² | - |
| 1787839454 | 23.89° C | 78% | 1018.8 hPa | 0 mm | - | 245 W/m² | - |
| 1787839154 | 23.89° C | 77% | 1018.9 hPa | 0 mm | - | 237 W/m² | - |
| 1787838854 | 23.89° C | 76% | 1018.8 hPa | 0 mm | - | 203 W/m² | - |
| 1787838554 | 24.44° C | 74% | 1018.8 hPa | 0 mm | - | 236 W/m² | - |
| 1787838253 | 24.44° C | 74% | 1018.6 hPa | 0 mm | - | 708 W/m² | - |
| 1787837952 | 23.89° C | 76% | 1018.8 hPa | 0 mm | - | 623 W/m² | - |
| 1787837651 | 23.33° C | 78% | 1018.6 hPa | 0 mm | - | 405 W/m² | - |
| 1787837346 | 22.78° C | 81% | 1018.3 hPa | 0 mm | - | 401 W/m² | - |
| 1787837041 | 22.22° C | 82% | 1018.6 hPa | 0 mm | - | 100 W/m² | - |
| 1787836741 | 22.22° C | 83% | 1018.8 hPa | 0 mm | - | 108 W/m² | - |
| 1787836436 | 21.67° C | 85% | 1018.7 hPa | 0 mm | - | 87 W/m² | - |
| 1787836131 | 21.67° C | 85% | 1018.7 hPa | 0 mm | - | 81 W/m² | - |
| 1787835827 | 21.11° C | 85% | 1018.8 hPa | 0 mm | - | 77 W/m² | - |
| 1787835526 | 21.11° C | 87% | 1018.9 hPa | 0 mm | - | 103 W/m² | - |
| 1787835221 | 20.56° C | 87% | 1018.6 hPa | 0 mm | - | 63 W/m² | - |
| 1787834921 | 20.56° C | 89% | 1018.6 hPa | 0 mm | - | 59 W/m² | - |
| 1787834620 | 20° C | 90% | 1018.8 hPa | 0 mm | - | 65 W/m² | - |
| 1787834315 | 20° C | 91% | 1018.8 hPa | 0 mm | - | 70 W/m² | - |
| 1787834011 | 19.44° C | 95% | 1018.7 hPa | 0 mm | - | 66 W/m² | - |
* Rain latest hour (hover to see other rain measurements)
** Current wind speed in m/s (hover to see current wind gust speed)